עמוד ראשי
METAR-TAF:

METAR-TAF

שדות תעופה :

נמל התעופה הבינלאומי אל דוראדו

בוגוטה, קולומביה

קו רוחב: 04-43N, קו אורך: 074-09W, גובה: 2547מטר

תצפית מזג אוויר נוכחית

הדו"ח נערך לפני 9דקות, בשעה 08:00 UTC
רוח 3קשר מכיוון צפון
טמפרטורת 11 צלסיוס
לחות 94%
לחץ 1026 hPa
ראות: 7000מטר
עננים בינוניים בגובה 1500רגל

METAR: SKBO 290800Z 35003KT 7000 BKN015 11/10 Q1026 NOSIG RMK BR

זמן: 03:09 (08:09 UTC)

תחזית

הדו"ח נערך לפני 3 שעות ו 39דקות, בשעה 04:30 UTC
תחזית בתוקף מ 29 ב 06 UTC עד 01 ב 06 UTC
רוח 2קשר עם כיוונים משתנים
ראות 10 קילומטר או יותר
עננים פזורים בגובה 1500רגל
זמנית מ -
29 ב 10 UTC עד 29 ב 13 UTC
ראות: 5000מטר
אד
יעשה מ
29 ב 16 UTC עד 29 ב 18 UTC
רוח 12קשר מכיוון מערב
הסתברות 40% :
זמנית מ -
29 ב 21 UTC עד 29 ב 23 UTC
טפטוף
יעשה מ
01 ב 02 UTC עד 01 ב 04 UTC
רוח 2קשר עם כיוונים משתנים

TAF: SKBO 290430Z 2906/0106 VRB02KT 9999 SCT015 TEMPO 2910/2913 5000 BR BECMG 2916/2918 27012KT PROB40 TEMPO 2921/2923 DZ BECMG 0102/0104 VRB02KT TX22/2919Z TN09/2910Z

תצפיות ותחזיות מזג אוויר לגבי יותר מ- 4,000 שדות תעופה ברחבי העולם. דוחות METAR ו- TAF.

התחנות הזמינות מסומנות בנקודות צהובות ואדומות על גבי המפה.

העבר את העכבר לנקודה הצבעונית על מנת לראות את שם התחנה.

לאחר מכן, לחץ כדי לראות את תוכן ואת תחזיות מזג האוויר.

כדי לשנות את המפה: לחץ על הכפתורים הירוקים עם הפלוס השחור כדי להתקרב; על הכפתור הירוק עם המקף כדי להתרחק; או בחיצים הירוקים למפות סמוכות.


METAR-TAF: